sensor_id;sensor_type;location;lat;lon;timestamp;P1;durP1;ratioP1;P2;durP2;ratioP2
7051;SDS011;3567;52.444;13.556;2023-07-30T00:01:40;5.70;;;5.05;;
7051;SDS011;3567;52.444;13.556;2023-07-30T00:04:05;5.22;;;4.82;;
7051;SDS011;3567;52.444;13.556;2023-07-30T00:06:31;6.07;;;5.38;;
7051;SDS011;3567;52.444;13.556;2023-07-30T00:08:56;6.22;;;5.70;;
7051;SDS011;3567;52.444;13.556;2023-07-30T00:11:21;5.20;;;4.68;;
7051;SDS011;3567;52.444;13.556;2023-07-30T00:13:47;5.38;;;5.07;;
7051;SDS011;3567;52.444;13.556;2023-07-30T00:16:12;5.10;;;4.70;;
7051;SDS011;3567;52.444;13.556;2023-07-30T00:18:38;9.65;;;5.50;;
7051;SDS011;3567;52.444;13.556;2023-07-30T00:21:04;6.55;;;4.93;;
7051;SDS011;3567;52.444;13.556;2023-07-30T00:23:29;6.82;;;6.22;;
7051;SDS011;3567;52.444;13.556;2023-07-30T00:25:54;5.40;;;5.03;;
7051;SDS011;3567;52.444;13.556;2023-07-30T00:28:20;5.10;;;4.70;;
7051;SDS011;3567;52.444;13.556;2023-07-30T00:30:45;5.38;;;5.07;;
7051;SDS011;3567;52.444;13.556;2023-07-30T00:33:11;6.20;;;5.60;;
7051;SDS011;3567;52.444;13.556;2023-07-30T00:35:37;5.57;;;5.15;;
7051;SDS011;3567;52.444;13.556;2023-07-30T00:38:02;5.93;;;5.40;;
7051;SDS011;3567;52.444;13.556;2023-07-30T00:40:27;5.07;;;4.78;;
7051;SDS011;3567;52.444;13.556;2023-07-30T00:42:53;6.10;;;5.65;;
7051;SDS011;3567;52.444;13.556;2023-07-30T00:45:18;6.50;;;6.03;;
7051;SDS011;3567;52.444;13.556;2023-07-30T00:47:43;6.60;;;6.00;;
7051;SDS011;3567;52.444;13.556;2023-07-30T00:50:10;6.65;;;6.25;;
7051;SDS011;3567;52.444;13.556;2023-07-30T00:52:38;8.60;;;7.28;;
7051;SDS011;3567;52.444;13.556;2023-07-30T00:55:04;7.43;;;6.10;;
7051;SDS011;3567;52.444;13.556;2023-07-30T00:57:30;5.55;;;5.22;;
7051;SDS011;3567;52.444;13.556;2023-07-30T00:59:56;7.43;;;5.63;;
7051;SDS011;3567;52.444;13.556;2023-07-30T01:02:22;5.68;;;5.28;;
7051;SDS011;3567;52.444;13.556;2023-07-30T01:04:48;5.82;;;5.43;;
7051;SDS011;3567;52.444;13.556;2023-07-30T01:07:14;8.07;;;6.10;;
7051;SDS011;3567;52.444;13.556;2023-07-30T01:09:39;6.13;;;5.63;;
7051;SDS011;3567;52.444;13.556;2023-07-30T01:12:05;6.13;;;5.72;;
7051;SDS011;3567;52.444;13.556;2023-07-30T01:14:32;5.13;;;4.72;;
7051;SDS011;3567;52.444;13.556;2023-07-30T01:16:58;6.00;;;5.50;;
7051;SDS011;3567;52.444;13.556;2023-07-30T01:19:23;6.45;;;6.05;;
7051;SDS011;3567;52.444;13.556;2023-07-30T01:21:48;6.18;;;5.35;;
7051;SDS011;3567;52.444;13.556;2023-07-30T01:24:14;5.90;;;5.45;;
7051;SDS011;3567;52.444;13.556;2023-07-30T01:26:50;7.93;;;6.82;;
7051;SDS011;3567;52.444;13.556;2023-07-30T01:29:25;6.57;;;6.03;;
7051;SDS011;3567;52.444;13.556;2023-07-30T01:31:57;8.68;;;5.78;;
7051;SDS011;3567;52.444;13.556;2023-07-30T01:34:29;5.97;;;5.47;;
7051;SDS011;3567;52.444;13.556;2023-07-30T01:36:59;7.20;;;5.55;;
7051;SDS011;3567;52.444;13.556;2023-07-30T01:39:26;7.45;;;6.85;;
7051;SDS011;3567;52.444;13.556;2023-07-30T01:41:53;8.40;;;7.60;;
7051;SDS011;3567;52.444;13.556;2023-07-30T01:44:19;8.45;;;7.53;;
7051;SDS011;3567;52.444;13.556;2023-07-30T01:46:45;8.77;;;7.85;;
7051;SDS011;3567;52.444;13.556;2023-07-30T01:49:10;9.55;;;8.20;;
7051;SDS011;3567;52.444;13.556;2023-07-30T01:51:36;8.75;;;7.95;;
7051;SDS011;3567;52.444;13.556;2023-07-30T01:54:01;9.57;;;7.82;;
7051;SDS011;3567;52.444;13.556;2023-07-30T01:56:26;8.27;;;7.53;;
7051;SDS011;3567;52.444;13.556;2023-07-30T01:58:52;6.63;;;6.13;;
7051;SDS011;3567;52.444;13.556;2023-07-30T02:01:17;8.07;;;7.47;;
7051;SDS011;3567;52.444;13.556;2023-07-30T02:03:42;7.72;;;7.15;;
7051;SDS011;3567;52.444;13.556;2023-07-30T02:06:08;9.13;;;7.53;;
7051;SDS011;3567;52.444;13.556;2023-07-30T02:08:33;6.97;;;6.38;;
7051;SDS011;3567;52.444;13.556;2023-07-30T02:10:59;8.15;;;7.45;;
7051;SDS011;3567;52.444;13.556;2023-07-30T02:13:24;7.25;;;6.65;;
7051;SDS011;3567;52.444;13.556;2023-07-30T02:15:50;6.30;;;5.90;;
7051;SDS011;3567;52.444;13.556;2023-07-30T02:18:16;7.43;;;6.70;;
7051;SDS011;3567;52.444;13.556;2023-07-30T02:20:41;7.03;;;6.18;;
7051;SDS011;3567;52.444;13.556;2023-07-30T02:23:07;7.50;;;6.13;;
7051;SDS011;3567;52.444;13.556;2023-07-30T02:25:32;8.20;;;7.50;;
7051;SDS011;3567;52.444;13.556;2023-07-30T02:27:59;8.52;;;7.05;;
7051;SDS011;3567;52.444;13.556;2023-07-30T02:30:26;9.20;;;7.68;;
7051;SDS011;3567;52.444;13.556;2023-07-30T02:32:51;8.52;;;7.72;;
7051;SDS011;3567;52.444;13.556;2023-07-30T02:35:16;7.43;;;6.82;;
7051;SDS011;3567;52.444;13.556;2023-07-30T02:37:42;6.28;;;5.88;;
7051;SDS011;3567;52.444;13.556;2023-07-30T02:40:07;7.93;;;7.32;;
7051;SDS011;3567;52.444;13.556;2023-07-30T02:42:33;8.82;;;6.40;;
7051;SDS011;3567;52.444;13.556;2023-07-30T02:44:59;8.10;;;6.82;;
7051;SDS011;3567;52.444;13.556;2023-07-30T02:47:24;10.82;;;8.57;;
7051;SDS011;3567;52.444;13.556;2023-07-30T02:49:50;9.27;;;8.40;;
7051;SDS011;3567;52.444;13.556;2023-07-30T02:52:15;8.57;;;7.78;;
7051;SDS011;3567;52.444;13.556;2023-07-30T02:54:40;8.45;;;7.60;;
7051;SDS011;3567;52.444;13.556;2023-07-30T02:57:06;11.45;;;8.50;;
7051;SDS011;3567;52.444;13.556;2023-07-30T02:59:31;10.52;;;9.63;;
7051;SDS011;3567;52.444;13.556;2023-07-30T03:02:00;10.38;;;9.40;;
7051;SDS011;3567;52.444;13.556;2023-07-30T03:04:26;10.07;;;9.30;;
7051;SDS011;3567;52.444;13.556;2023-07-30T03:06:51;10.43;;;8.88;;
7051;SDS011;3567;52.444;13.556;2023-07-30T03:09:17;10.73;;;9.77;;
7051;SDS011;3567;52.444;13.556;2023-07-30T03:11:42;12.38;;;9.90;;
7051;SDS011;3567;52.444;13.556;2023-07-30T03:14:07;12.93;;;10.85;;
7051;SDS011;3567;52.444;13.556;2023-07-30T03:16:33;11.00;;;10.02;;
7051;SDS011;3567;52.444;13.556;2023-07-30T03:18:58;11.95;;;10.27;;
7051;SDS011;3567;52.444;13.556;2023-07-30T03:21:24;11.63;;;10.43;;
7051;SDS011;3567;52.444;13.556;2023-07-30T03:23:49;11.98;;;10.88;;
7051;SDS011;3567;52.444;13.556;2023-07-30T03:26:14;11.85;;;10.65;;
7051;SDS011;3567;52.444;13.556;2023-07-30T03:28:40;12.95;;;11.45;;
7051;SDS011;3567;52.444;13.556;2023-07-30T03:31:05;28.67;;;25.75;;
7051;SDS011;3567;52.444;13.556;2023-07-30T03:33:31;18.83;;;15.60;;
7051;SDS011;3567;52.444;13.556;2023-07-30T03:35:56;16.45;;;14.85;;
7051;SDS011;3567;52.444;13.556;2023-07-30T03:38:22;13.00;;;11.90;;
7051;SDS011;3567;52.444;13.556;2023-07-30T03:40:47;12.10;;;11.02;;
7051;SDS011;3567;52.444;13.556;2023-07-30T03:43:12;11.80;;;10.70;;
7051;SDS011;3567;52.444;13.556;2023-07-30T03:45:38;19.02;;;15.52;;
7051;SDS011;3567;52.444;13.556;2023-07-30T03:48:03;17.75;;;15.85;;
7051;SDS011;3567;52.444;13.556;2023-07-30T03:50:29;18.38;;;16.58;;
7051;SDS011;3567;52.444;13.556;2023-07-30T03:52:54;14.73;;;13.43;;
7051;SDS011;3567;52.444;13.556;2023-07-30T03:55:19;31.67;;;28.48;;
7051;SDS011;3567;52.444;13.556;2023-07-30T03:57:45;19.77;;;17.95;;
7051;SDS011;3567;52.444;13.556;2023-07-30T04:00:10;15.90;;;14.35;;
7051;SDS011;3567;52.444;13.556;2023-07-30T04:02:36;13.77;;;12.60;;
7051;SDS011;3567;52.444;13.556;2023-07-30T04:05:02;12.05;;;11.00;;
7051;SDS011;3567;52.444;13.556;2023-07-30T04:07:27;12.88;;;11.82;;
7051;SDS011;3567;52.444;13.556;2023-07-30T04:09:53;12.70;;;11.65;;
7051;SDS011;3567;52.444;13.556;2023-07-30T04:12:18;19.00;;;17.02;;
7051;SDS011;3567;52.444;13.556;2023-07-30T04:14:46;19.77;;;17.77;;
7051;SDS011;3567;52.444;13.556;2023-07-30T04:17:11;13.30;;;12.07;;
7051;SDS011;3567;52.444;13.556;2023-07-30T04:19:37;12.60;;;11.43;;
7051;SDS011;3567;52.444;13.556;2023-07-30T04:22:02;11.88;;;10.77;;
7051;SDS011;3567;52.444;13.556;2023-07-30T04:24:29;11.95;;;11.05;;
7051;SDS011;3567;52.444;13.556;2023-07-30T04:26:54;15.20;;;13.57;;
7051;SDS011;3567;52.444;13.556;2023-07-30T04:29:20;12.05;;;11.15;;
7051;SDS011;3567;52.444;13.556;2023-07-30T04:31:45;10.63;;;9.82;;
7051;SDS011;3567;52.444;13.556;2023-07-30T04:34:11;9.85;;;9.15;;
7051;SDS011;3567;52.444;13.556;2023-07-30T04:36:36;9.65;;;8.48;;
7051;SDS011;3567;52.444;13.556;2023-07-30T04:39:01;11.70;;;9.25;;
7051;SDS011;3567;52.444;13.556;2023-07-30T04:41:27;9.73;;;8.82;;
7051;SDS011;3567;52.444;13.556;2023-07-30T04:43:52;8.93;;;8.07;;
7051;SDS011;3567;52.444;13.556;2023-07-30T04:46:18;8.68;;;8.07;;
7051;SDS011;3567;52.444;13.556;2023-07-30T04:48:43;7.85;;;7.35;;
7051;SDS011;3567;52.444;13.556;2023-07-30T04:51:09;8.88;;;8.27;;
7051;SDS011;3567;52.444;13.556;2023-07-30T04:53:34;8.05;;;7.55;;
7051;SDS011;3567;52.444;13.556;2023-07-30T04:55:59;8.38;;;7.68;;
7051;SDS011;3567;52.444;13.556;2023-07-30T04:58:25;7.68;;;7.00;;
7051;SDS011;3567;52.444;13.556;2023-07-30T05:00:50;6.22;;;5.93;;
7051;SDS011;3567;52.444;13.556;2023-07-30T05:03:16;9.35;;;8.68;;
7051;SDS011;3567;52.444;13.556;2023-07-30T05:05:41;12.18;;;10.98;;
7051;SDS011;3567;52.444;13.556;2023-07-30T05:08:07;7.93;;;7.32;;
7051;SDS011;3567;52.444;13.556;2023-07-30T05:10:32;6.95;;;6.40;;
7051;SDS011;3567;52.444;13.556;2023-07-30T05:12:58;7.70;;;6.53;;
7051;SDS011;3567;52.444;13.556;2023-07-30T05:15:23;10.43;;;9.55;;
7051;SDS011;3567;52.444;13.556;2023-07-30T05:17:48;7.95;;;7.28;;
7051;SDS011;3567;52.444;13.556;2023-07-30T05:20:14;5.60;;;5.30;;
7051;SDS011;3567;52.444;13.556;2023-07-30T05:22:39;12.10;;;11.10;;
7051;SDS011;3567;52.444;13.556;2023-07-30T05:25:05;7.00;;;6.50;;
7051;SDS011;3567;52.444;13.556;2023-07-30T05:27:30;7.15;;;5.38;;
7051;SDS011;3567;52.444;13.556;2023-07-30T05:29:57;4.90;;;4.55;;
7051;SDS011;3567;52.444;13.556;2023-07-30T05:32:22;5.47;;;4.70;;
7051;SDS011;3567;52.444;13.556;2023-07-30T05:34:48;4.03;;;3.83;;
7051;SDS011;3567;52.444;13.556;2023-07-30T05:37:13;7.28;;;6.35;;
7051;SDS011;3567;52.444;13.556;2023-07-30T05:39:38;4.68;;;4.47;;
7051;SDS011;3567;52.444;13.556;2023-07-30T05:42:04;4.53;;;4.32;;
7051;SDS011;3567;52.444;13.556;2023-07-30T05:44:29;4.28;;;3.88;;
7051;SDS011;3567;52.444;13.556;2023-07-30T05:46:55;4.25;;;3.95;;
7051;SDS011;3567;52.444;13.556;2023-07-30T05:49:20;4.22;;;3.92;;
7051;SDS011;3567;52.444;13.556;2023-07-30T05:51:46;6.53;;;3.28;;
7051;SDS011;3567;52.444;13.556;2023-07-30T05:54:12;5.55;;;4.57;;
7051;SDS011;3567;52.444;13.556;2023-07-30T05:56:37;4.60;;;3.85;;
7051;SDS011;3567;52.444;13.556;2023-07-30T05:59:03;3.67;;;3.40;;
7051;SDS011;3567;52.444;13.556;2023-07-30T06:01:28;4.25;;;4.03;;
7051;SDS011;3567;52.444;13.556;2023-07-30T06:03:54;3.47;;;3.10;;
7051;SDS011;3567;52.444;13.556;2023-07-30T06:06:19;4.40;;;4.00;;
7051;SDS011;3567;52.444;13.556;2023-07-30T06:08:51;3.15;;;2.95;;
7051;SDS011;3567;52.444;13.556;2023-07-30T06:11:17;3.30;;;3.10;;
7051;SDS011;3567;52.444;13.556;2023-07-30T06:13:43;7.75;;;6.95;;
7051;SDS011;3567;52.444;13.556;2023-07-30T06:16:08;3.78;;;3.58;;
7051;SDS011;3567;52.444;13.556;2023-07-30T06:18:34;5.13;;;2.78;;
7051;SDS011;3567;52.444;13.556;2023-07-30T06:21:00;4.10;;;2.80;;
7051;SDS011;3567;52.444;13.556;2023-07-30T06:23:25;2.97;;;2.78;;
7051;SDS011;3567;52.444;13.556;2023-07-30T06:25:50;3.85;;;3.65;;
7051;SDS011;3567;52.444;13.556;2023-07-30T06:28:16;5.03;;;4.18;;
7051;SDS011;3567;52.444;13.556;2023-07-30T06:30:41;2.58;;;2.47;;
7051;SDS011;3567;52.444;13.556;2023-07-30T06:33:07;3.13;;;3.03;;
7051;SDS011;3567;52.444;13.556;2023-07-30T06:35:32;3.05;;;2.85;;
7051;SDS011;3567;52.444;13.556;2023-07-30T06:37:57;2.92;;;2.72;;
7051;SDS011;3567;52.444;13.556;2023-07-30T06:40:23;2.72;;;2.50;;
7051;SDS011;3567;52.444;13.556;2023-07-30T06:42:48;2.47;;;2.28;;
7051;SDS011;3567;52.444;13.556;2023-07-30T06:45:13;2.35;;;2.17;;
7051;SDS011;3567;52.444;13.556;2023-07-30T06:47:39;3.42;;;3.22;;
7051;SDS011;3567;52.444;13.556;2023-07-30T06:50:05;4.22;;;3.78;;
7051;SDS011;3567;52.444;13.556;2023-07-30T06:52:33;3.03;;;2.83;;
7051;SDS011;3567;52.444;13.556;2023-07-30T06:54:59;3.67;;;2.60;;
7051;SDS011;3567;52.444;13.556;2023-07-30T06:57:25;3.03;;;2.50;;
7051;SDS011;3567;52.444;13.556;2023-07-30T06:59:50;3.40;;;2.95;;
7051;SDS011;3567;52.444;13.556;2023-07-30T07:02:15;2.55;;;2.38;;
7051;SDS011;3567;52.444;13.556;2023-07-30T07:04:41;2.67;;;2.40;;
7051;SDS011;3567;52.444;13.556;2023-07-30T07:07:06;3.92;;;2.38;;
7051;SDS011;3567;52.444;13.556;2023-07-30T07:09:31;2.45;;;2.35;;
7051;SDS011;3567;52.444;13.556;2023-07-30T07:11:57;4.68;;;3.10;;
7051;SDS011;3567;52.444;13.556;2023-07-30T07:14:23;2.97;;;2.78;;
7051;SDS011;3567;52.444;13.556;2023-07-30T07:16:49;3.05;;;2.95;;
7051;SDS011;3567;52.444;13.556;2023-07-30T07:19:14;3.10;;;2.80;;
7051;SDS011;3567;52.444;13.556;2023-07-30T07:21:40;5.05;;;3.05;;
7051;SDS011;3567;52.444;13.556;2023-07-30T07:24:05;4.15;;;3.03;;
7051;SDS011;3567;52.444;13.556;2023-07-30T07:26:30;5.07;;;3.10;;
7051;SDS011;3567;52.444;13.556;2023-07-30T07:28:56;2.63;;;2.33;;
7051;SDS011;3567;52.444;13.556;2023-07-30T07:31:21;3.35;;;3.08;;
7051;SDS011;3567;52.444;13.556;2023-07-30T07:33:47;3.40;;;3.20;;
7051;SDS011;3567;52.444;13.556;2023-07-30T07:36:12;2.85;;;2.63;;
7051;SDS011;3567;52.444;13.556;2023-07-30T07:38:39;2.92;;;2.83;;
7051;SDS011;3567;52.444;13.556;2023-07-30T07:41:04;3.72;;;3.42;;
7051;SDS011;3567;52.444;13.556;2023-07-30T07:43:30;2.65;;;2.55;;
7051;SDS011;3567;52.444;13.556;2023-07-30T07:45:55;3.92;;;2.95;;
7051;SDS011;3567;52.444;13.556;2023-07-30T07:48:21;3.97;;;3.03;;
7051;SDS011;3567;52.444;13.556;2023-07-30T07:50:46;3.10;;;2.72;;
7051;SDS011;3567;52.444;13.556;2023-07-30T07:53:12;3.78;;;2.80;;
7051;SDS011;3567;52.444;13.556;2023-07-30T07:55:37;2.78;;;2.58;;
7051;SDS011;3567;52.444;13.556;2023-07-30T07:58:02;2.90;;;2.63;;
7051;SDS011;3567;52.444;13.556;2023-07-30T08:00:28;3.17;;;2.70;;
7051;SDS011;3567;52.444;13.556;2023-07-30T08:02:53;2.58;;;2.47;;
7051;SDS011;3567;52.444;13.556;2023-07-30T08:05:18;2.47;;;2.38;;
7051;SDS011;3567;52.444;13.556;2023-07-30T08:07:47;3.33;;;2.65;;
7051;SDS011;3567;52.444;13.556;2023-07-30T08:10:13;2.65;;;2.45;;
7051;SDS011;3567;52.444;13.556;2023-07-30T08:12:38;3.00;;;2.50;;
7051;SDS011;3567;52.444;13.556;2023-07-30T08:15:04;2.22;;;2.13;;
7051;SDS011;3567;52.444;13.556;2023-07-30T08:17:29;2.28;;;2.17;;
7051;SDS011;3567;52.444;13.556;2023-07-30T08:19:55;2.17;;;2.08;;
7051;SDS011;3567;52.444;13.556;2023-07-30T08:22:20;2.47;;;2.28;;
7051;SDS011;3567;52.444;13.556;2023-07-30T08:24:45;2.50;;;2.30;;
7051;SDS011;3567;52.444;13.556;2023-07-30T08:27:11;4.40;;;4.10;;
7051;SDS011;3567;52.444;13.556;2023-07-30T08:29:36;2.90;;;2.70;;
7051;SDS011;3567;52.444;13.556;2023-07-30T08:32:01;3.00;;;2.45;;
7051;SDS011;3567;52.444;13.556;2023-07-30T08:34:27;3.35;;;2.17;;
7051;SDS011;3567;52.444;13.556;2023-07-30T08:36:52;2.50;;;2.30;;
7051;SDS011;3567;52.444;13.556;2023-07-30T08:39:18;2.92;;;1.60;;
7051;SDS011;3567;52.444;13.556;2023-07-30T08:41:43;1.23;;;1.23;;
7051;SDS011;3567;52.444;13.556;2023-07-30T08:44:10;1.90;;;1.73;;
7051;SDS011;3567;52.444;13.556;2023-07-30T08:46:35;2.88;;;1.60;;
7051;SDS011;3567;52.444;13.556;2023-07-30T08:49:00;1.52;;;1.42;;
7051;SDS011;3567;52.444;13.556;2023-07-30T08:51:26;1.60;;;1.50;;
7051;SDS011;3567;52.444;13.556;2023-07-30T08:53:52;1.40;;;1.30;;
7051;SDS011;3567;52.444;13.556;2023-07-30T08:56:18;1.60;;;1.50;;
7051;SDS011;3567;52.444;13.556;2023-07-30T08:58:44;1.42;;;1.30;;
7051;SDS011;3567;52.444;13.556;2023-07-30T09:01:10;1.92;;;1.65;;
7051;SDS011;3567;52.444;13.556;2023-07-30T09:03:37;1.33;;;1.15;;
7051;SDS011;3567;52.444;13.556;2023-07-30T09:06:04;2.08;;;1.25;;
7051;SDS011;3567;52.444;13.556;2023-07-30T09:08:29;1.75;;;1.65;;
7051;SDS011;3567;52.444;13.556;2023-07-30T09:10:57;2.13;;;1.70;;
7051;SDS011;3567;52.444;13.556;2023-07-30T09:13:22;1.63;;;1.52;;
7051;SDS011;3567;52.444;13.556;2023-07-30T09:15:48;1.75;;;1.45;;
7051;SDS011;3567;52.444;13.556;2023-07-30T09:18:16;1.60;;;1.45;;
7051;SDS011;3567;52.444;13.556;2023-07-30T09:20:43;1.75;;;1.30;;
7051;SDS011;3567;52.444;13.556;2023-07-30T09:23:09;1.48;;;1.38;;
7051;SDS011;3567;52.444;13.556;2023-07-30T09:25:35;3.50;;;1.40;;
7051;SDS011;3567;52.444;13.556;2023-07-30T09:28:02;5.00;;;1.60;;
7051;SDS011;3567;52.444;13.556;2023-07-30T09:30:27;2.92;;;1.40;;
7051;SDS011;3567;52.444;13.556;2023-07-30T09:32:56;2.67;;;1.25;;
7051;SDS011;3567;52.444;13.556;2023-07-30T09:35:23;2.55;;;1.30;;
7051;SDS011;3567;52.444;13.556;2023-07-30T09:38:01;2.45;;;1.73;;
7051;SDS011;3567;52.444;13.556;2023-07-30T09:40:32;1.55;;;1.45;;
7051;SDS011;3567;52.444;13.556;2023-07-30T09:42:59;2.15;;;1.50;;
7051;SDS011;3567;52.444;13.556;2023-07-30T09:45:26;2.83;;;1.23;;
7051;SDS011;3567;52.444;13.556;2023-07-30T09:47:53;2.17;;;1.52;;
7051;SDS011;3567;52.444;13.556;2023-07-30T09:50:21;3.03;;;1.48;;
7051;SDS011;3567;52.444;13.556;2023-07-30T09:52:46;1.65;;;1.55;;
7051;SDS011;3567;52.444;13.556;2023-07-30T09:55:12;2.67;;;1.00;;
7051;SDS011;3567;52.444;13.556;2023-07-30T09:57:38;1.48;;;1.30;;
7051;SDS011;3567;52.444;13.556;2023-07-30T10:00:04;3.25;;;1.20;;
7051;SDS011;3567;52.444;13.556;2023-07-30T10:02:31;1.50;;;1.40;;
7051;SDS011;3567;52.444;13.556;2023-07-30T10:05:02;3.78;;;1.77;;
7051;SDS011;3567;52.444;13.556;2023-07-30T10:07:33;1.33;;;1.20;;
7051;SDS011;3567;52.444;13.556;2023-07-30T10:10:00;2.25;;;1.33;;
7051;SDS011;3567;52.444;13.556;2023-07-30T10:12:31;2.25;;;1.00;;
7051;SDS011;3567;52.444;13.556;2023-07-30T10:15:00;3.92;;;1.50;;
7051;SDS011;3567;52.444;13.556;2023-07-30T10:17:26;3.60;;;1.42;;
7051;SDS011;3567;52.444;13.556;2023-07-30T10:19:53;2.65;;;1.10;;
7051;SDS011;3567;52.444;13.556;2023-07-30T10:25:02;5.75;;;1.42;;
7051;SDS011;3567;52.444;13.556;2023-07-30T10:27:38;4.03;;;1.15;;
7051;SDS011;3567;52.444;13.556;2023-07-30T10:30:11;0.90;;;0.90;;
7051;SDS011;3567;52.444;13.556;2023-07-30T10:41:49;2.13;;;0.98;;
7051;SDS011;3567;52.444;13.556;2023-07-30T10:44:22;5.30;;;1.50;;
7051;SDS011;3567;52.444;13.556;2023-07-30T10:46:53;1.38;;;1.00;;
7051;SDS011;3567;52.444;13.556;2023-07-30T10:50:16;2.85;;;1.23;;
7051;SDS011;3567;52.444;13.556;2023-07-30T10:52:42;1.08;;;1.00;;
7051;SDS011;3567;52.444;13.556;2023-07-30T10:55:07;1.23;;;1.10;;
7051;SDS011;3567;52.444;13.556;2023-07-30T10:57:33;1.33;;;1.17;;
7051;SDS011;3567;52.444;13.556;2023-07-30T10:59:59;1.27;;;1.13;;
7051;SDS011;3567;52.444;13.556;2023-07-30T11:02:24;4.18;;;0.93;;
7051;SDS011;3567;52.444;13.556;2023-07-30T11:04:50;2.80;;;1.27;;
7051;SDS011;3567;52.444;13.556;2023-07-30T11:07:17;2.35;;;1.20;;
7051;SDS011;3567;52.444;13.556;2023-07-30T11:09:43;1.17;;;1.08;;
7051;SDS011;3567;52.444;13.556;2023-07-30T11:12:08;2.20;;;1.10;;
7051;SDS011;3567;52.444;13.556;2023-07-30T11:14:34;1.33;;;0.93;;
7051;SDS011;3567;52.444;13.556;2023-07-30T11:17:00;3.08;;;1.10;;
7051;SDS011;3567;52.444;13.556;2023-07-30T11:19:25;1.13;;;1.10;;
7051;SDS011;3567;52.444;13.556;2023-07-30T11:21:52;2.20;;;1.60;;
7051;SDS011;3567;52.444;13.556;2023-07-30T11:24:19;1.30;;;1.20;;
7051;SDS011;3567;52.444;13.556;2023-07-30T11:26:45;1.58;;;0.82;;
7051;SDS011;3567;52.444;13.556;2023-07-30T11:29:23;3.22;;;2.92;;
7051;SDS011;3567;52.444;13.556;2023-07-30T11:31:48;1.58;;;1.48;;
7051;SDS011;3567;52.444;13.556;2023-07-30T11:34:14;1.90;;;1.58;;
7051;SDS011;3567;52.444;13.556;2023-07-30T11:36:40;1.80;;;1.05;;
7051;SDS011;3567;52.444;13.556;2023-07-30T11:39:06;1.20;;;1.10;;
7051;SDS011;3567;52.444;13.556;2023-07-30T11:41:32;1.90;;;1.27;;
7051;SDS011;3567;52.444;13.556;2023-07-30T11:43:58;1.15;;;1.05;;
7051;SDS011;3567;52.444;13.556;2023-07-30T11:46:24;3.53;;;0.95;;
7051;SDS011;3567;52.444;13.556;2023-07-30T11:48:50;1.77;;;1.08;;
7051;SDS011;3567;52.444;13.556;2023-07-30T11:51:24;2.63;;;1.42;;
7051;SDS011;3567;52.444;13.556;2023-07-30T11:53:51;1.95;;;1.40;;
7051;SDS011;3567;52.444;13.556;2023-07-30T11:59:00;2.38;;;1.20;;
7051;SDS011;3567;52.444;13.556;2023-07-30T12:01:31;2.42;;;1.48;;
7051;SDS011;3567;52.444;13.556;2023-07-30T12:04:00;1.27;;;1.05;;
7051;SDS011;3567;52.444;13.556;2023-07-30T12:06:45;2.95;;;1.42;;
7051;SDS011;3567;52.444;13.556;2023-07-30T12:09:12;1.40;;;1.27;;
7051;SDS011;3567;52.444;13.556;2023-07-30T12:11:52;1.80;;;1.30;;
7051;SDS011;3567;52.444;13.556;2023-07-30T12:14:43;3.45;;;1.25;;
7051;SDS011;3567;52.444;13.556;2023-07-30T12:17:09;2.42;;;1.20;;
7051;SDS011;3567;52.444;13.556;2023-07-30T12:19:34;2.85;;;1.50;;
7051;SDS011;3567;52.444;13.556;2023-07-30T12:22:03;1.98;;;1.30;;
7051;SDS011;3567;52.444;13.556;2023-07-30T12:24:28;1.30;;;1.05;;
7051;SDS011;3567;52.444;13.556;2023-07-30T12:26:54;3.33;;;1.48;;
7051;SDS011;3567;52.444;13.556;2023-07-30T12:29:19;2.45;;;1.30;;
7051;SDS011;3567;52.444;13.556;2023-07-30T12:31:44;5.90;;;1.67;;
7051;SDS011;3567;52.444;13.556;2023-07-30T12:34:11;2.65;;;1.48;;
7051;SDS011;3567;52.444;13.556;2023-07-30T12:36:36;2.65;;;1.45;;
7051;SDS011;3567;52.444;13.556;2023-07-30T12:39:02;2.50;;;1.50;;
7051;SDS011;3567;52.444;13.556;2023-07-30T12:41:27;7.78;;;1.35;;
7051;SDS011;3567;52.444;13.556;2023-07-30T12:43:53;3.50;;;1.30;;
7051;SDS011;3567;52.444;13.556;2023-07-30T12:46:19;2.88;;;1.58;;
7051;SDS011;3567;52.444;13.556;2023-07-30T12:48:45;1.38;;;1.20;;
7051;SDS011;3567;52.444;13.556;2023-07-30T12:51:10;2.22;;;0.98;;
7051;SDS011;3567;52.444;13.556;2023-07-30T12:53:36;2.65;;;1.40;;
7051;SDS011;3567;52.444;13.556;2023-07-30T12:56:01;3.30;;;1.20;;
7051;SDS011;3567;52.444;13.556;2023-07-30T12:58:27;5.65;;;1.40;;
7051;SDS011;3567;52.444;13.556;2023-07-30T13:00:52;2.15;;;1.20;;
7051;SDS011;3567;52.444;13.556;2023-07-30T13:03:18;1.65;;;1.33;;
7051;SDS011;3567;52.444;13.556;2023-07-30T13:05:43;1.75;;;1.30;;
7051;SDS011;3567;52.444;13.556;2023-07-30T13:08:08;3.03;;;1.40;;
7051;SDS011;3567;52.444;13.556;2023-07-30T13:10:34;4.28;;;1.73;;
7051;SDS011;3567;52.444;13.556;2023-07-30T13:13:00;3.83;;;1.50;;
7051;SDS011;3567;52.444;13.556;2023-07-30T13:15:25;1.88;;;1.50;;
7051;SDS011;3567;52.444;13.556;2023-07-30T13:17:50;2.10;;;1.25;;
7051;SDS011;3567;52.444;13.556;2023-07-30T13:20:16;2.55;;;1.30;;
7051;SDS011;3567;52.444;13.556;2023-07-30T13:22:41;2.88;;;1.30;;
7051;SDS011;3567;52.444;13.556;2023-07-30T13:25:07;1.30;;;1.20;;
7051;SDS011;3567;52.444;13.556;2023-07-30T13:27:32;5.05;;;1.63;;
7051;SDS011;3567;52.444;13.556;2023-07-30T13:29:57;4.38;;;1.23;;
7051;SDS011;3567;52.444;13.556;2023-07-30T13:32:23;2.53;;;1.30;;
7051;SDS011;3567;52.444;13.556;2023-07-30T13:34:48;3.10;;;1.40;;
7051;SDS011;3567;52.444;13.556;2023-07-30T13:37:13;2.15;;;1.33;;
7051;SDS011;3567;52.444;13.556;2023-07-30T13:39:39;1.83;;;1.20;;
7051;SDS011;3567;52.444;13.556;2023-07-30T13:42:05;3.08;;;1.60;;
7051;SDS011;3567;52.444;13.556;2023-07-30T13:44:30;4.82;;;1.35;;
7051;SDS011;3567;52.444;13.556;2023-07-30T13:46:56;3.22;;;1.33;;
7051;SDS011;3567;52.444;13.556;2023-07-30T13:49:21;2.08;;;1.48;;
7051;SDS011;3567;52.444;13.556;2023-07-30T13:51:46;2.72;;;1.48;;
7051;SDS011;3567;52.444;13.556;2023-07-30T13:54:12;1.58;;;1.20;;
7051;SDS011;3567;52.444;13.556;2023-07-30T13:56:37;2.58;;;1.35;;
7051;SDS011;3567;52.444;13.556;2023-07-30T13:59:03;1.77;;;1.40;;
7051;SDS011;3567;52.444;13.556;2023-07-30T14:01:29;2.35;;;1.50;;
7051;SDS011;3567;52.444;13.556;2023-07-30T14:03:54;2.20;;;1.27;;
7051;SDS011;3567;52.444;13.556;2023-07-30T14:06:20;4.82;;;1.58;;
7051;SDS011;3567;52.444;13.556;2023-07-30T14:08:45;1.98;;;1.23;;
7051;SDS011;3567;52.444;13.556;2023-07-30T14:11:11;2.95;;;1.52;;
7051;SDS011;3567;52.444;13.556;2023-07-30T14:13:36;4.40;;;1.17;;
7051;SDS011;3567;52.444;13.556;2023-07-30T14:16:02;1.48;;;1.38;;
7051;SDS011;3567;52.444;13.556;2023-07-30T14:18:27;2.22;;;1.50;;
7051;SDS011;3567;52.444;13.556;2023-07-30T14:20:52;2.95;;;1.30;;
7051;SDS011;3567;52.444;13.556;2023-07-30T14:23:18;1.77;;;1.30;;
7051;SDS011;3567;52.444;13.556;2023-07-30T14:25:43;2.05;;;1.10;;
7051;SDS011;3567;52.444;13.556;2023-07-30T14:28:09;1.83;;;1.15;;
7051;SDS011;3567;52.444;13.556;2023-07-30T14:30:34;2.05;;;1.08;;
7051;SDS011;3567;52.444;13.556;2023-07-30T14:33:00;2.35;;;0.70;;
7051;SDS011;3567;52.444;13.556;2023-07-30T14:35:26;3.05;;;0.80;;
7051;SDS011;3567;52.444;13.556;2023-07-30T14:37:52;3.13;;;1.08;;
7051;SDS011;3567;52.444;13.556;2023-07-30T14:40:17;0.75;;;0.60;;
7051;SDS011;3567;52.444;13.556;2023-07-30T14:42:43;1.25;;;0.77;;
7051;SDS011;3567;52.444;13.556;2023-07-30T14:45:08;1.95;;;0.85;;
7051;SDS011;3567;52.444;13.556;2023-07-30T14:47:34;0.70;;;0.70;;
7051;SDS011;3567;52.444;13.556;2023-07-30T14:49:59;0.95;;;0.90;;
7051;SDS011;3567;52.444;13.556;2023-07-30T14:52:25;2.42;;;0.68;;
7051;SDS011;3567;52.444;13.556;2023-07-30T14:54:51;2.20;;;1.05;;
7051;SDS011;3567;52.444;13.556;2023-07-30T14:57:16;2.10;;;1.00;;
7051;SDS011;3567;52.444;13.556;2023-07-30T14:59:42;4.10;;;1.15;;
7051;SDS011;3567;52.444;13.556;2023-07-30T15:02:07;2.45;;;1.00;;
7051;SDS011;3567;52.444;13.556;2023-07-30T15:04:33;2.22;;;0.90;;
7051;SDS011;3567;52.444;13.556;2023-07-30T15:06:58;4.30;;;1.75;;